Aérodrome :
LOGIN :

S'inscrire | Disclaimer

   EN    FR    IT 

 










Légende :    VFR   VFR Marginal   IFR   IFR Intensif   IFR Très Intensif
Visi : 
Plafond : 
>= 8 km
>= 3000ft
5 à 8 km
1000 à 3000 ft
1500m à 5 km
500 à 1000 ft
800 à 1500m
200 à 500 ft
< 800m
< 200 ft
Symboles :   Orages  Brouillard  Fortes neiges  Fortes précipitations  Vent > 20 kt
SIGMETs :   Divers  Orages  Givrage  Turbulence  Onde Orograph.  Cendres Volcan.






- Altitude de l'aérodrome : 6 ft
- Code IATA : PSA


LIRP - Galileo Galilei Pisa

DERNIER METAR :
  • 191715Z 10010KT 9999 FEW030 BKN070 13/12 Q1013 NOSIG

METARs EXPIRÉS :
  • 191645Z 09010KT 9999 FEW027 BKN070 13/12 Q1012 NOSIG
  • 191615Z 10012KT 9999 -RA FEW025 BKN060 13/12 Q1012 NOSIG
  • 191545Z 10014KT 8000 -RA SCT025 BKN060 13/12 Q1012 NOSIG
  • 191515Z 10014KT 8000 -RA SCT025 BKN060 13/12 Q1012 TEMPO 5000
  • 191445Z 10015KT 9999 SCT025 BKN070 14/12 Q1012 TEMPO 5000 RA

TAF TAF LIRP
Valide du 19 à 18h jusqu'au 20 à 18h UTC


191700Z 1918/2018 10014KT 9999 SCT020 BKN060
TEMPO 1918/1924 12018G30KT 5000 RA BR
BECMG 2010/2012 5000 RA BR



MET'MAP, la Météo Aéronautique d'un coup d'oeil ! - Copyright ORBIFLY Décembre 2007 - Disclaimer

ORBIFLY MET'MAP TEAM :

Programmation & Développement : Alexandra Zaïnal
Conception & Développement : Baudouin d'Aumeries
Co-Programmation & Développement : Marc-Olivier Méhu
Soutien technique & logistique : Manuel Goepfert

Contact : metmap@orbifly.com




SOURCES & CREDITS :

   NOAA